Time;durP1;ratioP1;P1;durP2;ratioP2;P2;SDS_P1;SDS_P2;PMS_P1;PMS_P2;Temp;Humidity;BMP_temperature;BMP_pressure;BME280_temperature;BME280_humidity;BME280_pressure;Samples;Min_cycle;Max_cycle;Signal;HPM_P1;HPM_P2
2023/09/07 00:00:49;;;;;;;5.75;5.18;;;;;;;17.14;98.87;102023.69;6250605;22;20041;-74
2023/09/07 00:03:16;;;;;;;5.90;5.50;;;;;;;17.14;98.46;102026.38;6222466;22;20163;-75
2023/09/07 00:05:42;;;;;;;5.95;5.32;;;;;;;17.11;99.87;102027.28;6250073;22;20067;-74
2023/09/07 00:08:09;;;;;;;9.57;5.65;;;;;;;17.09;99.08;102024.28;6223252;22;20092;-74
2023/09/07 00:10:36;;;;;;;5.93;5.43;;;;;;;17.06;99.65;102025.19;6250221;22;20459;-75
2023/09/07 00:13:03;;;;;;;8.07;5.38;;;;;;;17.05;99.23;102021.03;6250325;22;20019;-74
2023/09/07 00:15:36;;;;;;;5.45;5.10;;;;;;;17.00;99.61;102023.13;6249581;22;20846;-74
2023/09/07 00:18:03;;;;;;;7.88;5.15;;;;;;;16.99;100.00;102018.94;6249767;22;20037;-74
2023/09/07 00:20:29;;;;;;;5.75;5.32;;;;;;;16.96;100.00;102016.41;6249531;22;20095;-74
2023/09/07 00:22:56;;;;;;;5.50;5.00;;;;;;;16.90;99.66;102018.22;6250411;22;20091;-75
2023/09/07 00:25:23;;;;;;;5.38;4.97;;;;;;;16.83;99.87;102013.88;6222595;22;20025;-75
2023/09/07 00:27:49;;;;;;;5.80;4.82;;;;;;;16.80;100.00;102014.78;6223063;22;20052;-75
2023/09/07 00:30:16;;;;;;;6.15;5.57;;;;;;;16.78;100.00;102013.78;6197961;22;20107;-75
2023/09/07 00:32:42;;;;;;;7.63;6.20;;;;;;;16.74;99.57;102013.19;6248682;22;20051;-75
2023/09/07 00:35:09;;;;;;;5.72;5.07;;;;;;;16.72;100.00;102010.94;6249585;22;20036;-75
2023/09/07 00:37:37;;;;;;;6.10;5.35;;;;;;;16.68;99.92;102004.97;6197881;22;20095;-75
2023/09/07 00:40:08;;;;;;;6.80;5.43;;;;;;;16.66;100.00;102002.00;6222826;22;20036;-75
2023/09/07 00:42:36;;;;;;;6.65;5.30;;;;;;;16.62;100.00;102009.44;6249859;22;20013;-74
2023/09/07 00:45:03;;;;;;;6.50;5.13;;;;;;;16.62;99.96;102004.81;6223055;22;20358;-75
2023/09/07 00:47:36;;;;;;;5.63;5.05;;;;;;;16.61;100.00;102000.63;6221443;22;20019;-75
2023/09/07 00:50:06;;;;;;;7.13;5.32;;;;;;;16.59;100.00;102005.72;6250073;22;20075;-74
2023/09/07 00:52:35;;;;;;;5.28;4.90;;;;;;;16.56;100.00;102001.22;6249738;22;20019;-74
2023/09/07 00:55:04;;;;;;;5.15;4.78;;;;;;;16.54;100.00;101994.81;6222731;22;20040;-74
2023/09/07 00:57:31;;;;;;;5.57;5.10;;;;;;;16.51;100.00;102001.81;6249932;22;20036;-74
2023/09/07 00:59:58;;;;;;;5.00;4.70;;;;;;;16.46;99.94;102004.38;6223056;22;20020;-75
2023/09/07 01:02:25;;;;;;;5.22;4.55;;;;;;;16.43;99.97;102000.63;6221722;22;20082;-75
2023/09/07 01:04:52;;;;;;;5.25;4.78;;;;;;;16.40;100.00;101992.72;6250128;22;20288;-74
2023/09/07 01:07:37;;;;;;;5.30;4.90;;;;;;;16.39;99.60;102000.06;6222166;22;20024;-74
2023/09/07 01:10:04;;;;;;;5.15;4.75;;;;;;;16.32;100.00;101989.63;6250413;22;20443;-75
2023/09/07 01:12:31;;;;;;;5.15;4.53;;;;;;;16.31;99.88;101993.50;6222337;22;20048;-74
2023/09/07 01:14:58;;;;;;;4.72;4.38;;;;;;;16.27;99.66;101995.59;6249440;22;20441;-75
2023/09/07 01:17:25;;;;;;;5.65;5.15;;;;;;;16.25;100.00;101992.59;6249293;22;20017;-75
2023/09/07 01:19:52;;;;;;;5.50;5.03;;;;;;;16.21;99.59;101992.75;6250116;22;20028;-74
2023/09/07 01:22:22;;;;;;;5.38;4.90;;;;;;;16.17;99.30;101994.09;6249339;22;20091;-74
2023/09/07 01:24:51;;;;;;;5.95;5.20;;;;;;;16.17;99.83;101994.84;6198059;22;20541;-74
2023/09/07 01:27:18;;;;;;;5.63;5.22;;;;;;;16.16;100.00;101997.97;6249850;22;20043;-74
2023/09/07 01:29:45;;;;;;;7.20;5.20;;;;;;;16.08;99.11;101997.50;6222537;22;20326;-74
2023/09/07 01:32:13;;;;;;;11.57;5.55;;;;;;;16.06;100.00;102001.84;6222609;22;20405;-74
2023/09/07 01:34:40;;;;;;;5.47;4.90;;;;;;;16.05;99.71;101992.28;6222327;22;20024;-74
2023/09/07 01:37:07;;;;;;;5.45;5.05;;;;;;;16.01;99.91;101993.19;6222530;22;20495;-75
2023/09/07 01:39:35;;;;;;;6.53;4.63;;;;;;;16.00;99.95;101989.00;6222487;22;20025;-75
2023/09/07 01:42:02;;;;;;;5.20;4.80;;;;;;;15.97;100.00;101989.16;6250185;22;20017;-75
2023/09/07 01:44:29;;;;;;;4.70;4.25;;;;;;;15.94;100.00;101987.38;6221641;22;20016;-76
2023/09/07 01:46:56;;;;;;;5.32;4.60;;;;;;;15.92;100.00;101981.69;6250100;22;20024;-75
2023/09/07 01:49:23;;;;;;;10.88;5.00;;;;;;;15.89;100.00;101987.97;6221936;22;20031;-76
2023/09/07 01:51:52;;;;;;;5.65;5.15;;;;;;;15.88;100.00;101986.47;6249825;22;20067;-75
2023/09/07 01:54:21;;;;;;;6.05;5.65;;;;;;;15.85;100.00;101979.31;6221711;22;20462;-76
2023/09/07 01:56:47;;;;;;;8.77;5.38;;;;;;;15.81;100.00;101984.06;6222700;22;20136;-75
2023/09/07 01:59:14;;;;;;;5.90;5.40;;;;;;;15.79;100.00;101983.75;6221852;22;20024;-76
2023/09/07 02:01:41;;;;;;;8.75;5.85;;;;;;;15.72;100.00;101984.78;6222518;22;20023;-75
2023/09/07 02:04:08;;;;;;;6.10;5.50;;;;;;;15.71;100.00;101987.91;6222382;22;20530;-76
2023/09/07 02:06:34;;;;;;;5.95;5.55;;;;;;;15.70;100.00;101987.16;6222323;22;20052;-75
2023/09/07 02:09:01;;;;;;;5.63;5.22;;;;;;;15.66;100.00;101987.31;6249821;22;20024;-75
2023/09/07 02:11:28;;;;;;;6.18;5.60;;;;;;;15.64;100.00;101988.94;6249305;22;20017;-76
2023/09/07 02:13:54;;;;;;;5.57;5.18;;;;;;;15.62;100.00;101977.91;6249624;22;20017;-76
2023/09/07 02:16:21;;;;;;;5.65;5.25;;;;;;;15.56;99.98;101983.13;6249109;22;20032;-76
2023/09/07 02:18:49;;;;;;;6.22;5.63;;;;;;;15.54;100.00;101988.16;6222604;22;20020;-75
2023/09/07 02:21:16;;;;;;;6.22;5.72;;;;;;;15.53;100.00;101984.00;6197262;22;20092;-76
2023/09/07 02:23:42;;;;;;;7.30;5.72;;;;;;;15.48;100.00;101984.56;6249321;22;20017;-76
2023/09/07 02:26:09;;;;;;;6.10;5.50;;;;;;;15.47;100.00;101985.00;6222656;22;20478;-75
2023/09/07 02:28:36;;;;;;;6.28;5.30;;;;;;;15.43;100.00;101977.09;6248811;22;20024;-76
2023/09/07 02:31:04;;;;;;;6.05;5.30;;;;;;;15.41;100.00;101987.53;6223047;22;20021;-76
2023/09/07 02:33:31;;;;;;;5.10;4.80;;;;;;;15.39;100.00;101979.16;6221750;22;20021;-75
2023/09/07 02:35:58;;;;;;;5.70;5.30;;;;;;;15.37;100.00;101980.81;6222605;22;20924;-76
2023/09/07 02:38:26;;;;;;;6.55;5.03;;;;;;;15.35;100.00;101979.31;6221909;22;20017;-75
2023/09/07 02:40:54;;;;;;;5.95;5.38;;;;;;;15.31;100.00;101983.31;6222375;22;20112;-76
2023/09/07 02:43:22;;;;;;;5.68;5.25;;;;;;;15.28;100.00;101981.50;6248454;22;20075;-75
2023/09/07 02:45:50;;;;;;;6.43;4.75;;;;;;;15.27;100.00;101988.81;6222137;22;20104;-75
2023/09/07 02:48:19;;;;;;;8.03;4.43;;;;;;;15.26;100.00;101994.63;6221917;22;20020;-76
2023/09/07 02:50:50;;;;;;;5.43;5.03;;;;;;;15.22;100.00;101985.94;6249505;22;20013;-74
2023/09/07 02:53:19;;;;;;;5.97;4.65;;;;;;;15.20;100.00;101982.97;6221324;22;20076;-75
2023/09/07 02:55:46;;;;;;;4.90;4.50;;;;;;;15.16;100.00;101990.41;6221784;22;20446;-76
2023/09/07 02:58:13;;;;;;;5.53;5.13;;;;;;;15.12;100.00;101987.13;6221647;22;20025;-75
2023/09/07 03:00:44;;;;;;;5.32;5.03;;;;;;;15.10;100.00;101987.56;6222111;22;20516;-75
2023/09/07 03:03:14;;;;;;;5.30;4.80;;;;;;;15.06;100.00;101997.69;6221784;22;20016;-75
2023/09/07 03:05:43;;;;;;;5.60;5.10;;;;;;;15.06;100.00;101996.94;6221683;22;20017;-75
2023/09/07 03:08:10;;;;;;;5.63;5.18;;;;;;;15.01;100.00;101990.94;6249236;22;20017;-76
2023/09/07 03:10:39;;;;;;;5.30;4.82;;;;;;;14.98;100.00;101999.88;6222097;22;20103;-75
2023/09/07 03:13:07;;;;;;;5.40;4.97;;;;;;;14.95;100.00;101990.00;6221885;22;20055;-76
2023/09/07 03:15:35;;;;;;;5.45;5.05;;;;;;;14.95;100.00;101998.06;6221879;22;20024;-75
2023/09/07 03:18:05;;;;;;;6.18;5.57;;;;;;;14.95;100.00;101989.28;6222474;22;20020;-75
2023/09/07 03:20:34;;;;;;;6.43;5.38;;;;;;;14.92;100.00;101985.53;6221960;22;20081;-75
2023/09/07 03:23:02;;;;;;;5.55;5.15;;;;;;;14.89;100.00;101991.03;6222122;22;20020;-75
2023/09/07 03:25:28;;;;;;;5.80;5.40;;;;;;;14.86;100.00;101984.59;6248367;22;20016;-75
2023/09/07 03:27:55;;;;;;;5.85;5.45;;;;;;;14.84;100.00;101988.91;6197308;22;20028;-75
2023/09/07 03:30:22;;;;;;;6.05;5.45;;;;;;;14.81;100.00;101993.22;6221436;22;20028;-76
2023/09/07 03:32:48;;;;;;;6.45;5.95;;;;;;;14.78;100.00;101982.63;6222140;22;20024;-75
2023/09/07 03:35:15;;;;;;;8.05;6.45;;;;;;;14.76;100.00;101985.00;6249065;22;20021;-76
2023/09/07 03:37:42;;;;;;;7.40;6.63;;;;;;;14.74;100.00;101982.75;6221920;22;20017;-76
2023/09/07 03:40:10;;;;;;;7.22;6.72;;;;;;;14.73;100.00;101992.00;6220847;22;20549;-75
2023/09/07 03:42:39;;;;;;;7.20;6.53;;;;;;;14.69;100.00;101983.31;6221681;22;20355;-76
2023/09/07 03:45:07;;;;;;;7.55;6.90;;;;;;;14.67;100.00;101983.00;6221969;22;20047;-76
2023/09/07 03:47:33;;;;;;;8.00;7.30;;;;;;;14.67;100.00;101977.66;6221558;22;20025;-75
2023/09/07 03:50:01;;;;;;;6.90;6.20;;;;;;;14.65;100.00;101985.38;6222046;22;20017;-75
2023/09/07 03:52:30;;;;;;;7.55;6.85;;;;;;;14.63;100.00;101985.81;6220817;22;20481;-75
2023/09/07 03:55:00;;;;;;;7.53;6.68;;;;;;;14.61;100.00;101990.13;6221185;22;20024;-75
2023/09/07 03:57:27;;;;;;;6.43;5.95;;;;;;;14.58;100.00;101989.06;6220907;22;20528;-75
2023/09/07 03:59:55;;;;;;;7.63;6.10;;;;;;;14.55;100.00;101986.50;6221883;22;20023;-76
2023/09/07 04:02:23;;;;;;;7.13;5.60;;;;;;;14.51;100.00;101991.22;6248404;22;20013;-75
2023/09/07 04:04:51;;;;;;;5.70;5.30;;;;;;;14.50;100.00;101987.06;6221852;22;20071;-76
2023/09/07 04:07:18;;;;;;;6.88;5.75;;;;;;;14.47;100.00;101986.00;6221865;22;20020;-75
2023/09/07 04:09:46;;;;;;;5.85;5.43;;;;;;;14.46;100.00;101989.13;6222609;22;20402;-75
2023/09/07 04:12:12;;;;;;;5.65;5.15;;;;;;;14.42;100.00;101988.47;6222641;22;20021;-75
2023/09/07 04:14:40;;;;;;;5.82;5.40;;;;;;;14.42;100.00;101989.22;6222546;22;20100;-75
2023/09/07 04:17:07;;;;;;;5.50;4.97;;;;;;;14.40;100.00;101988.88;6222814;22;20454;-75
2023/09/07 04:19:33;;;;;;;5.60;5.10;;;;;;;14.38;100.00;101995.91;6223060;22;20458;-75
2023/09/07 04:22:00;;;;;;;5.55;5.07;;;;;;;14.36;100.00;101996.31;6223463;22;20047;-76
2023/09/07 04:24:28;;;;;;;5.32;4.93;;;;;;;14.34;100.00;101993.34;6221761;22;20055;-76
2023/09/07 04:27:00;;;;;;;6.53;5.93;;;;;;;14.32;100.00;101991.09;6222684;22;20471;-75
2023/09/07 04:29:27;;;;;;;6.10;5.50;;;;;;;14.28;100.00;101992.38;6197626;22;20020;-75
2023/09/07 04:31:54;;;;;;;6.32;5.72;;;;;;;14.23;100.00;101992.94;6250470;22;20546;-75
2023/09/07 04:34:22;;;;;;;6.22;5.47;;;;;;;14.23;100.00;101991.00;6222669;22;20091;-75
2023/09/07 04:36:50;;;;;;;7.80;5.28;;;;;;;14.18;100.00;101986.19;6222983;22;20079;-76
2023/09/07 04:39:16;;;;;;;6.35;5.55;;;;;;;14.14;100.00;101988.25;6222127;22;20017;-75
2023/09/07 04:41:43;;;;;;;5.90;5.38;;;;;;;14.15;100.00;101995.09;6250325;22;20037;-75
2023/09/07 04:44:10;;;;;;;6.45;5.93;;;;;;;14.15;100.00;101986.31;6222592;22;20021;-75
2023/09/07 04:46:37;;;;;;;6.35;5.82;;;;;;;14.11;100.00;101991.78;6250041;22;20462;-75
2023/09/07 04:49:04;;;;;;;8.20;6.18;;;;;;;14.07;100.00;101995.75;6223021;22;20016;-75
2023/09/07 04:51:31;;;;;;;5.68;5.28;;;;;;;14.08;100.00;101994.59;6249858;22;20017;-75
2023/09/07 04:53:58;;;;;;;6.40;5.88;;;;;;;14.05;100.00;101998.88;6222601;22;20055;-76
2023/09/07 04:56:25;;;;;;;6.53;5.25;;;;;;;14.05;100.00;101998.88;6222098;22;20024;-75
2023/09/07 04:58:52;;;;;;;5.40;5.00;;;;;;;14.03;100.00;101993.19;6223464;22;20018;-75
2023/09/07 05:01:19;;;;;;;5.43;5.00;;;;;;;13.99;100.00;101997.94;6249035;22;20013;-75
2023/09/07 05:03:46;;;;;;;5.40;5.00;;;;;;;13.95;100.00;102000.75;6222787;22;20075;-76
2023/09/07 05:06:13;;;;;;;6.22;5.43;;;;;;;13.98;100.00;101999.13;6222398;22;20021;-76
2023/09/07 05:08:40;;;;;;;5.43;5.00;;;;;;;13.98;100.00;101999.13;6221787;22;20075;-75
2023/09/07 05:11:07;;;;;;;8.75;5.10;;;;;;;13.96;100.00;102001.50;6222632;22;20016;-76
2023/09/07 05:13:34;;;;;;;8.80;5.32;;;;;;;13.97;100.00;101997.63;6222224;22;20075;-75
2023/09/07 05:16:02;;;;;;;6.10;5.40;;;;;;;13.99;100.00;102003.31;6222880;22;20029;-75
2023/09/07 05:18:28;;;;;;;5.75;5.35;;;;;;;13.98;100.00;102007.16;6221723;22;20025;-75
2023/09/07 05:20:57;;;;;;;6.05;5.65;;;;;;;13.97;100.00;102013.69;6222876;22;20021;-75
2023/09/07 05:23:26;;;;;;;6.35;5.75;;;;;;;13.96;100.00;102006.84;6196829;22;20075;-77
2023/09/07 05:25:54;;;;;;;6.72;5.80;;;;;;;13.98;100.00;102012.50;6222592;22;20021;-77
2023/09/07 05:28:23;;;;;;;7.13;5.70;;;;;;;13.97;100.00;102016.38;6197589;22;20103;-75
2023/09/07 05:30:52;;;;;;;6.18;5.60;;;;;;;13.97;100.00;102016.38;6197999;22;20602;-79
2023/09/07 05:33:21;;;;;;;6.80;5.65;;;;;;;13.99;100.00;102024.72;6221861;22;20104;-75
2023/09/07 05:35:48;;;;;;;6.82;5.57;;;;;;;14.00;100.00;102021.59;6249670;22;20096;-76
2023/09/07 05:38:14;;;;;;;5.93;5.47;;;;;;;14.01;100.00;102025.75;6221843;22;20469;-76
2023/09/07 05:40:44;;;;;;;6.15;5.65;;;;;;;14.02;100.00;102027.25;6197411;22;20029;-76
2023/09/07 05:43:11;;;;;;;8.00;5.80;;;;;;;14.04;100.00;102021.47;6221902;22;20013;-76
2023/09/07 05:45:40;;;;;;;5.60;5.10;;;;;;;14.09;100.00;102031.63;6222182;22;20112;-76
2023/09/07 05:48:08;;;;;;;6.75;6.05;;;;;;;14.15;100.00;102027.22;6222156;22;20024;-77
2023/09/07 05:50:37;;;;;;;8.43;6.30;;;;;;;14.22;100.00;102028.94;6221647;22;20451;-76
2023/09/07 05:53:05;;;;;;;9.77;6.80;;;;;;;14.28;100.00;102027.97;6221998;22;20043;-74
2023/09/07 05:55:32;;;;;;;8.48;6.78;;;;;;;14.32;100.00;102030.50;6222173;22;20108;-75
2023/09/07 05:58:04;;;;;;;8.90;6.28;;;;;;;14.91;100.00;102028.88;6222414;22;20072;-76
2023/09/07 06:00:34;;;;;;;8.85;7.40;;;;;;;17.37;95.82;102027.63;6197718;22;20016;-77
2023/09/07 06:03:01;;;;;;;7.50;6.80;;;;;;;19.57;81.04;102036.06;6222718;22;20027;-77
2023/09/07 06:05:29;;;;;;;11.27;6.70;;;;;;;21.13;71.92;102036.19;6221304;22;20028;-78
2023/09/07 06:07:56;;;;;;;7.50;6.13;;;;;;;22.19;66.98;102039.44;6222990;22;20016;-77
2023/09/07 06:10:23;;;;;;;7.82;6.68;;;;;;;22.89;63.63;102046.69;6196833;22;20012;-77
2023/09/07 06:12:50;;;;;;;6.70;6.15;;;;;;;23.42;61.08;102051.06;6222515;22;20362;-77
2023/09/07 06:15:17;;;;;;;7.30;6.60;;;;;;;23.53;60.16;102051.06;6197041;22;20028;-78
2023/09/07 06:17:45;;;;;;;6.70;6.20;;;;;;;23.61;60.18;102052.00;6249681;22;20013;-78
2023/09/07 06:20:12;;;;;;;8.15;6.70;;;;;;;23.75;59.92;102052.97;6221500;22;20091;-77
2023/09/07 06:22:40;;;;;;;7.68;6.97;;;;;;;23.70;61.05;102055.69;6221883;22;20044;-78
2023/09/07 06:25:07;;;;;;;8.23;7.30;;;;;;;23.43;61.84;102057.25;6221440;22;20025;-77
2023/09/07 06:27:34;;;;;;;8.80;7.57;;;;;;;23.18;62.51;102064.47;6222446;22;20021;-76
2023/09/07 06:30:00;;;;;;;10.05;8.55;;;;;;;22.83;64.34;102062.97;6222406;22;20028;-78
2023/09/07 06:32:28;;;;;;;22.75;8.27;;;;;;;22.50;66.40;102060.97;6196820;22;20023;-77
2023/09/07 06:34:55;;;;;;;21.20;9.10;;;;;;;22.11;67.93;102062.84;6248991;22;20025;-77
2023/09/07 06:37:24;;;;;;;36.38;10.02;;;;;;;21.75;70.79;102059.72;6221718;22;20422;-77
2023/09/07 06:39:51;;;;;;;15.45;8.45;;;;;;;21.33;72.03;102062.44;6221800;22;20027;-78
2023/09/07 06:42:18;;;;;;;9.50;8.60;;;;;;;21.05;73.76;102064.94;6222238;22;20095;-78
2023/09/07 06:44:50;;;;;;;10.02;8.70;;;;;;;20.90;74.59;102070.47;6222659;22;20016;-78
2023/09/07 06:47:16;;;;;;;17.67;8.55;;;;;;;20.80;75.36;102071.84;6249425;22;20017;-76
2023/09/07 06:49:43;;;;;;;10.10;8.00;;;;;;;20.70;75.57;102070.53;6248717;22;20040;-76
2023/09/07 06:52:11;;;;;;;13.98;8.15;;;;;;;20.62;76.58;102067.50;6222169;22;20024;-77
2023/09/07 06:54:38;;;;;;;10.50;8.00;;;;;;;20.55;76.45;102063.25;6221809;22;20029;-75
2023/09/07 06:57:08;;;;;;;9.82;8.18;;;;;;;20.50;77.47;102066.66;6221913;22;20016;-76
2023/09/07 06:59:36;;;;;;;9.90;7.97;;;;;;;20.47;77.41;102066.88;6197083;22;20017;-76
2023/09/07 07:02:04;;;;;;;8.63;7.72;;;;;;;20.49;77.61;102067.88;6197383;22;20385;-77
2023/09/07 07:04:32;;;;;;;9.30;7.60;;;;;;;20.53;77.89;102073.06;6221257;22;20426;-76
2023/09/07 07:07:01;;;;;;;8.13;7.53;;;;;;;20.59;78.51;102071.91;6222500;22;20021;-76
2023/09/07 07:09:29;;;;;;;12.38;8.13;;;;;;;20.61;77.75;102071.44;6222075;22;20021;-76
2023/09/07 07:11:57;;;;;;;13.05;8.20;;;;;;;20.64;78.19;102078.59;6222423;22;20021;-78
2023/09/07 07:14:24;;;;;;;10.63;8.00;;;;;;;20.69;77.45;102082.59;6221380;22;20447;-75
2023/09/07 07:16:51;;;;;;;9.07;7.43;;;;;;;20.77;78.32;102078.97;6197171;22;20379;-79
2023/09/07 07:19:18;;;;;;;10.43;8.00;;;;;;;20.81;78.54;102082.19;6221919;22;20391;-78
2023/09/07 07:21:45;;;;;;;9.02;8.18;;;;;;;20.86;77.82;102088.88;6222270;22;20016;-79
2023/09/07 07:24:12;;;;;;;9.23;8.30;;;;;;;20.96;77.37;102088.25;6221875;22;20027;-79
2023/09/07 07:26:38;;;;;;;8.93;8.18;;;;;;;21.06;76.01;102082.66;6222716;22;20012;-75
2023/09/07 07:29:06;;;;;;;13.50;8.13;;;;;;;21.16;75.94;102089.38;6222031;22;20028;-75
2023/09/07 07:31:34;;;;;;;10.60;8.27;;;;;;;21.26;76.14;102079.88;6196736;22;20435;-76
2023/09/07 07:34:00;;;;;;;9.50;8.55;;;;;;;21.40;76.00;102079.00;6221390;22;20103;-76
2023/09/07 07:36:27;;;;;;;15.10;8.23;;;;;;;21.50;75.89;102076.84;6248157;22;20075;-76
2023/09/07 07:38:54;;;;;;;13.32;8.35;;;;;;;21.60;74.04;102069.97;6221884;22;20021;-75
2023/09/07 07:41:21;;;;;;;9.60;8.30;;;;;;;21.70;74.84;102071.28;6196049;22;20055;-76
2023/09/07 07:43:48;;;;;;;14.13;8.23;;;;;;;21.79;74.55;102071.06;6223246;22;20027;-75
2023/09/07 07:46:15;;;;;;;10.07;8.43;;;;;;;21.89;73.53;102074.31;6222533;22;20095;-77
2023/09/07 07:48:43;;;;;;;13.68;8.63;;;;;;;22.01;73.97;102070.44;6222422;22;20544;-77
2023/09/07 07:51:10;;;;;;;9.23;8.07;;;;;;;22.18;74.49;102065.81;6249956;22;20008;-76
2023/09/07 07:53:41;;;;;;;18.30;8.70;;;;;;;22.28;72.70;102064.38;6223047;22;20027;-76
2023/09/07 07:56:18;;;;;;;11.13;8.73;;;;;;;22.43;72.45;102063.41;6222422;22;20028;-76
2023/09/07 07:58:47;;;;;;;11.27;8.32;;;;;;;22.47;71.82;102061.94;6223617;22;20055;-77
2023/09/07 08:01:23;;;;;;;11.68;8.23;;;;;;;22.55;70.13;102060.22;6221607;22;20013;-75
2023/09/07 08:03:52;;;;;;;10.55;8.70;;;;;;;22.70;70.73;102065.44;6223191;22;20027;-76
2023/09/07 08:06:19;;;;;;;11.02;8.30;;;;;;;22.87;71.11;102060.03;6221876;22;20063;-77
2023/09/07 08:08:46;;;;;;;9.45;8.57;;;;;;;23.03;71.46;102063.97;6223013;22;20016;-76
2023/09/07 08:11:14;;;;;;;8.73;8.07;;;;;;;23.14;70.52;102058.53;6222580;22;20024;-77
2023/09/07 08:13:41;;;;;;;10.60;9.50;;;;;;;23.26;69.52;102055.28;6222862;22;20032;-77
2023/09/07 08:16:08;;;;;;;9.98;8.23;;;;;;;23.34;68.73;102052.06;6221890;22;20036;-76
2023/09/07 08:18:40;;;;;;;;;;;;;;;23.47;70.40;102053.03;6199199;22;20433;-78
2023/09/07 08:21:08;;;;;;;13.63;8.25;;;;;;;23.54;68.97;102049.84;6222055;22;19992;-78
2023/09/07 08:23:36;;;;;;;8.77;7.88;;;;;;;23.72;70.19;102039.63;6222566;22;20406;-78
2023/09/07 08:26:03;;;;;;;11.63;7.43;;;;;;;23.83;67.54;102039.59;6222606;22;20017;-78
2023/09/07 08:28:30;;;;;;;12.75;7.38;;;;;;;23.99;67.31;102043.47;6249622;22;20019;-78
2023/09/07 08:30:59;;;;;;;7.70;7.03;;;;;;;24.18;65.80;102042.38;6249570;22;20017;-75
2023/09/07 08:33:29;;;;;;;7.65;7.05;;;;;;;24.27;63.68;102039.38;6249293;22;20459;-78
2023/09/07 08:35:57;;;;;;;8.97;7.20;;;;;;;24.34;63.87;102042.81;6250037;22;20099;-78
2023/09/07 08:38:27;;;;;;;6.78;6.18;;;;;;;24.45;64.34;102038.00;6249559;22;20036;-76
2023/09/07 08:40:55;;;;;;;;;;;;;;;24.63;64.91;102042.09;6250168;22;20012;-75
2023/09/07 08:43:23;;;;;;;6.10;5.70;;;;;;;24.73;62.57;102028.91;6249443;22;19962;-77
2023/09/07 08:46:05;;;;;;;6.45;5.95;;;;;;;24.93;62.70;102033.91;6249437;22;20020;-76
2023/09/07 08:48:33;;;;;;;6.88;6.13;;;;;;;24.97;61.13;102039.09;6249950;22;20016;-76
2023/09/07 08:51:00;;;;;;;9.27;5.60;;;;;;;25.04;60.03;102033.84;6249929;22;20052;-78
2023/09/07 08:53:30;;;;;;;15.30;5.95;;;;;;;25.12;60.52;102029.31;6248739;22;20024;-77
2023/09/07 08:55:56;;;;;;;15.52;5.75;;;;;;;25.32;60.56;102028.09;6250107;22;20025;-76
2023/09/07 08:58:23;;;;;;;5.78;5.15;;;;;;;25.45;61.29;102030.19;6249577;22;20406;-78
2023/09/07 09:00:51;;;;;;;6.53;5.35;;;;;;;25.64;59.75;102019.31;6249653;22;20012;-77
2023/09/07 09:03:18;;;;;;;8.40;5.43;;;;;;;25.72;59.42;102026.41;6249554;22;20017;-78
2023/09/07 09:05:46;;;;;;;13.35;5.65;;;;;;;25.82;58.06;102018.59;6250173;22;20096;-77
2023/09/07 09:08:13;;;;;;;10.95;5.15;;;;;;;25.99;58.26;102010.19;6222487;22;20036;-76
2023/09/07 09:10:40;;;;;;;5.88;5.25;;;;;;;26.09;57.10;102014.75;6249615;22;20103;-78
2023/09/07 09:13:07;;;;;;;5.10;4.75;;;;;;;26.25;58.00;102008.31;6249887;22;20071;-77
2023/09/07 09:15:33;;;;;;;5.53;5.03;;;;;;;26.35;57.09;102013.41;6248930;22;20096;-78
2023/09/07 09:18:11;;;;;;;4.95;4.22;;;;;;;26.43;55.47;102009.53;6223276;22;20442;-78
2023/09/07 09:20:39;;;;;;;10.10;4.25;;;;;;;26.54;54.35;102005.91;6249521;22;20481;-77
2023/09/07 09:23:07;;;;;;;5.90;4.18;;;;;;;26.65;53.97;102002.97;6223085;22;20447;-77
2023/09/07 09:25:34;;;;;;;4.53;4.13;;;;;;;26.70;52.54;102009.63;6222837;22;20132;-77
2023/09/07 09:28:00;;;;;;;8.00;3.90;;;;;;;26.77;53.08;102001.53;6249192;22;20019;-78
2023/09/07 09:30:27;;;;;;;4.20;3.63;;;;;;;26.95;51.26;102004.69;6249256;22;20194;-77
2023/09/07 09:32:53;;;;;;;6.20;4.10;;;;;;;27.05;50.01;102012.00;6250247;22;20016;-77
2023/09/07 09:35:20;;;;;;;6.68;4.10;;;;;;;27.19;51.81;101999.06;6249176;22;20410;-77
2023/09/07 09:37:51;;;;;;;9.93;3.97;;;;;;;27.37;52.00;102005.66;6249852;22;20442;-76
2023/09/07 09:40:18;;;;;;;5.70;3.92;;;;;;;27.46;51.97;102000.50;6248991;22;20080;-77
2023/09/07 09:42:45;;;;;;;7.97;3.80;;;;;;;27.63;50.40;102000.16;6249395;22;20087;-77
2023/09/07 09:45:12;;;;;;;3.80;3.60;;;;;;;27.76;50.09;102007.59;6249602;22;20025;-77
2023/09/07 09:47:40;;;;;;;4.40;4.00;;;;;;;27.82;48.09;102005.47;6249731;22;20585;-77
2023/09/07 09:50:11;;;;;;;4.55;3.53;;;;;;;27.86;48.12;101998.44;6249433;22;20013;-77
2023/09/07 09:52:38;;;;;;;4.00;3.70;;;;;;;27.92;47.98;102008.50;6249334;22;20127;-77
2023/09/07 09:55:08;;;;;;;3.63;3.42;;;;;;;27.96;47.44;102008.91;6249707;22;20013;-80
2023/09/07 09:57:36;;;;;;;4.20;3.60;;;;;;;28.00;45.42;102009.31;6248667;22;20332;-79
2023/09/07 10:00:19;;;;;;;7.15;3.78;;;;;;;28.02;46.76;101999.28;6249989;22;20465;-78
2023/09/07 10:02:51;;;;;;;4.10;3.80;;;;;;;28.14;45.21;102002.50;6249980;22;20435;-78
2023/09/07 10:05:19;;;;;;;6.43;3.85;;;;;;;28.21;46.42;102002.63;6249042;22;20019;-79
2023/09/07 10:07:49;;;;;;;6.50;3.72;;;;;;;28.34;46.30;102001.09;6249394;22;20013;-79
2023/09/07 10:10:18;;;;;;;6.43;3.83;;;;;;;28.50;45.48;102008.16;6249269;22;20409;-80
2023/09/07 10:12:53;;;;;;;6.43;3.70;;;;;;;28.54;44.73;101998.31;6221635;22;20020;-79
2023/09/07 10:15:24;;;;;;;5.70;3.85;;;;;;;28.53;45.35;101996.13;6249267;22;20024;-79
2023/09/07 10:18:03;;;;;;;4.43;3.58;;;;;;;28.62;46.19;101994.91;6249470;22;20016;-77
2023/09/07 10:20:46;;;;;;;9.82;4.00;;;;;;;28.58;44.57;101992.50;6248850;22;20044;-77
2023/09/07 10:23:13;;;;;;;4.00;3.47;;;;;;;28.70;44.77;101998.44;6248385;22;20455;-78
2023/09/07 10:25:39;;;;;;;5.25;3.80;;;;;;;28.67;44.19;101994.03;6248123;22;20013;-76
2023/09/07 10:28:21;;;;;;;7.63;3.75;;;;;;;28.67;45.49;101992.03;6221483;22;20016;-75
2023/09/07 10:31:03;;;;;;;4.25;3.78;;;;;;;28.69;45.84;101996.97;6249377;22;20047;-76
2023/09/07 10:33:31;;;;;;;4.50;4.20;;;;;;;28.70;45.64;101995.69;6221390;22;20418;-76
2023/09/07 10:35:59;;;;;;;6.60;4.28;;;;;;;28.78;46.92;101989.00;6249195;22;20074;-75
2023/09/07 10:38:25;;;;;;;5.93;4.65;;;;;;;28.80;46.00;101983.69;6222105;22;20091;-76
2023/09/07 10:41:00;;;;;;;4.28;3.88;;;;;;;28.98;44.98;101979.28;6248486;22;20367;-75
2023/09/07 10:43:31;;;;;;;6.47;3.75;;;;;;;28.93;44.93;101988.38;6248982;22;20323;-76
2023/09/07 10:46:00;;;;;;;5.80;3.90;;;;;;;28.83;45.53;101974.44;6249506;22;20017;-77
2023/09/07 10:48:31;;;;;;;7.85;4.57;;;;;;;28.88;45.23;101975.56;6221397;22;20024;-75
2023/09/07 10:50:57;;;;;;;4.28;3.72;;;;;;;28.91;45.75;101968.25;6249071;22;20013;-75
2023/09/07 10:53:30;;;;;;;4.78;4.00;;;;;;;28.95;44.23;101971.41;6248373;22;20461;-76
2023/09/07 10:56:05;;;;;;;5.35;3.90;;;;;;;28.92;44.04;101975.22;6248349;22;20013;-76
2023/09/07 10:58:34;;;;;;;5.35;4.38;;;;;;;28.92;45.04;101980.69;6248995;22;20455;-76
2023/09/07 11:01:03;;;;;;;3.97;3.78;;;;;;;28.91;44.64;101973.75;6249410;22;20023;-76
2023/09/07 11:03:30;;;;;;;4.70;4.35;;;;;;;28.87;44.66;101972.06;6221202;22;20021;-77
2023/09/07 11:06:08;;;;;;;5.57;4.32;;;;;;;28.94;45.57;101973.41;6249196;22;20437;-76
2023/09/07 11:08:35;;;;;;;7.93;4.03;;;;;;;28.96;44.73;101970.13;6222202;22;20016;-78
2023/09/07 11:11:02;;;;;;;10.40;4.57;;;;;;;28.89;44.76;101971.53;6248858;22;20413;-80
2023/09/07 11:13:29;;;;;;;5.57;4.20;;;;;;;28.91;45.71;101960.78;6221914;22;20461;-78
2023/09/07 11:15:58;;;;;;;5.30;4.30;;;;;;;28.90;44.71;101966.78;6248709;22;20016;-79
2023/09/07 11:18:25;;;;;;;4.53;4.10;;;;;;;28.94;46.19;101958.97;6248437;22;20013;-79
2023/09/07 11:20:53;;;;;;;8.95;3.78;;;;;;;28.95;44.64;101946.72;6249107;22;20502;-79
2023/09/07 11:23:21;;;;;;;4.50;4.10;;;;;;;28.95;43.29;101952.22;6246344;22;20024;-79
2023/09/07 11:25:49;;;;;;;4.05;3.38;;;;;;;28.95;42.54;101947.47;6248371;22;20529;-77